Allenhurst, Georgia
Current Conditions -  °F | °C
As of 10:58 PM on Sunday 25 Jan 2015 (Local Time) from KLHW Reporting Station
Clear Clear  
Wind Chill: 46°   Ceiling: Unl
Heat Index: 46°   Visibility: 10mi
Dew Point: 38°   Wind: 2mph
Humidity: 73%   Direction: NA
Pressure: 29.85"   Gusts: NA
Location:  31.78°N, 81.61°W
Report Text: KLHW 260358Z AUTO VRB02KT 10SM CLR 08/03 A2985 RMK AO2 SLP111 T00790033
Loading
Personal Weather Stations






























Interactive Weather Map New forecast layout! Learn more

10-Day Weather Forecast

Advertisements
Track Severe Weather on mobile